Time;durP1;ratioP1;P1;durP2;ratioP2;P2;SDS_P1;SDS_P2;PMS_P1;PMS_P2;Temp;Humidity;BMP_temperature;BMP_pressure;BME280_temperature;BME280_humidity;BME280_pressure;Samples;Min_cycle;Max_cycle;Signal;HPM_P1;HPM_P2
2021/05/07 00:01:08;;;;;;;2.40;1.60;;;7.10;99.90;;;;;;5066111;28;20029;-74
2021/05/07 00:03:34;;;;;;;1.17;1.08;;;7.10;99.90;;;;;;5066321;28;20528;-74
2021/05/07 00:06:03;;;;;;;6.25;1.17;;;7.10;99.90;;;;;;5064275;28;20025;-75
2021/05/07 00:08:33;;;;;;;1.95;0.95;;;7.20;99.90;;;;;;5065539;28;20080;-74
2021/05/07 00:11:04;;;;;;;1.38;1.08;;;7.00;99.90;;;;;;5065770;28;20101;-74
2021/05/07 00:13:30;;;;;;;4.07;1.40;;;7.00;99.90;;;;;;5065356;28;20031;-74
2021/05/07 00:15:56;;;;;;;3.15;1.10;;;7.00;99.90;;;;;;5065522;28;20028;-74
2021/05/07 00:18:22;;;;;;;2.92;0.75;;;6.90;99.90;;;;;;5065465;28;20108;-74
2021/05/07 00:20:47;;;;;;;2.67;0.85;;;6.90;99.90;;;;;;5063813;28;20021;-75
2021/05/07 00:23:13;;;;;;;1.52;1.05;;;6.90;99.90;;;;;;5065390;28;20063;-73
2021/05/07 00:25:40;;;;;;;2.13;1.08;;;6.90;99.90;;;;;;5065616;28;20088;-75
2021/05/07 00:28:07;;;;;;;1.67;1.45;;;6.90;99.90;;;;;;5065358;28;20025;-74
2021/05/07 00:30:34;;;;;;;1.80;0.93;;;6.80;99.90;;;;;;5065244;28;20051;-73
2021/05/07 00:33:00;;;;;;;2.50;1.17;;;6.90;99.90;;;;;;5065311;28;20059;-75
2021/05/07 00:35:26;;;;;;;1.50;0.90;;;6.90;99.90;;;;;;5064862;28;20039;-76
2021/05/07 00:37:52;;;;;;;1.83;0.75;;;6.90;99.90;;;;;;5064971;28;20108;-75
2021/05/07 00:40:18;;;;;;;2.38;1.35;;;6.80;99.90;;;;;;5064896;28;20049;-74
2021/05/07 00:42:45;;;;;;;5.63;1.30;;;6.70;99.90;;;;;;5063640;28;20044;-75
2021/05/07 00:45:12;;;;;;;2.30;1.13;;;6.70;99.90;;;;;;5065102;28;20490;-74
2021/05/07 00:47:45;;;;;;;2.00;1.30;;;6.70;99.90;;;;;;5065114;28;20044;-77
2021/05/07 00:50:11;;;;;;;2.88;0.90;;;6.70;99.90;;;;;;5064619;28;20029;-74
2021/05/07 00:52:37;;;;;;;1.80;1.10;;;6.70;99.90;;;;;;5063626;28;20052;-75
2021/05/07 00:55:08;;;;;;;2.20;1.20;;;6.70;99.90;;;;;;5063575;28;20036;-75
2021/05/07 00:57:34;;;;;;;2.65;1.08;;;6.60;99.90;;;;;;5064826;28;20061;-76
2021/05/07 01:00:01;;;;;;;1.70;1.10;;;6.60;99.90;;;;;;5064883;28;20025;-75
2021/05/07 01:02:26;;;;;;;3.60;1.33;;;6.50;99.90;;;;;;5064691;28;20017;-75
2021/05/07 01:04:52;;;;;;;2.92;1.65;;;6.50;99.90;;;;;;5064185;28;20055;-75
2021/05/07 01:07:18;;;;;;;3.10;1.63;;;6.50;99.90;;;;;;5063426;28;20021;-76
2021/05/07 01:09:44;;;;;;;4.25;1.27;;;6.40;99.90;;;;;;5064611;28;20036;-74
2021/05/07 01:12:11;;;;;;;1.90;1.00;;;6.30;99.90;;;;;;5063055;28;20525;-75
2021/05/07 01:14:36;;;;;;;2.05;1.17;;;6.40;99.90;;;;;;5064878;28;20025;-76
2021/05/07 01:17:03;;;;;;;1.63;1.13;;;6.40;99.90;;;;;;5064808;28;20117;-76
2021/05/07 01:19:29;;;;;;;3.80;1.55;;;6.40;99.90;;;;;;5062772;28;20374;-74
2021/05/07 01:21:55;;;;;;;1.58;1.00;;;6.30;99.90;;;;;;5063463;28;20036;-75
2021/05/07 01:24:25;;;;;;;1.40;1.02;;;6.40;99.90;;;;;;5064313;28;20025;-76
2021/05/07 01:26:52;;;;;;;5.60;1.58;;;6.30;99.90;;;;;;5064415;28;20049;-75
2021/05/07 01:29:18;;;;;;;1.98;1.10;;;6.40;99.90;;;;;;5063058;28;20116;-74
2021/05/07 01:31:45;;;;;;;4.13;1.60;;;6.40;99.90;;;;;;5064130;28;20071;-74
2021/05/07 01:34:11;;;;;;;2.15;1.50;;;6.40;99.90;;;;;;5063158;28;20436;-74
2021/05/07 01:36:36;;;;;;;3.55;1.40;;;6.50;99.90;;;;;;5064537;28;20035;-77
2021/05/07 01:39:03;;;;;;;3.78;1.63;;;6.50;99.90;;;;;;5062913;28;20040;-73
2021/05/07 01:41:29;;;;;;;3.15;1.77;;;6.50;99.90;;;;;;5062427;28;20056;-75
2021/05/07 01:43:56;;;;;;;1.77;1.20;;;6.50;99.90;;;;;;5064146;28;20021;-74
2021/05/07 01:46:22;;;;;;;2.05;1.33;;;6.40;99.90;;;;;;5062430;28;20032;-74
2021/05/07 01:48:48;;;;;;;2.65;1.42;;;6.50;99.90;;;;;;5064320;28;20047;-75
2021/05/07 01:51:15;;;;;;;2.15;1.40;;;6.40;99.90;;;;;;5064238;28;20047;-76
2021/05/07 01:53:41;;;;;;;2.70;1.50;;;6.50;99.90;;;;;;5064223;28;20031;-75
2021/05/07 01:56:06;;;;;;;3.08;1.42;;;6.50;99.90;;;;;;5064266;28;20060;-76
2021/05/07 01:58:32;;;;;;;2.85;1.50;;;6.40;99.90;;;;;;5063359;28;20044;-76
2021/05/07 02:00:58;;;;;;;7.15;1.73;;;6.40;99.90;;;;;;5063683;28;20040;-74
2021/05/07 02:03:23;;;;;;;2.58;1.23;;;6.50;99.90;;;;;;5062445;28;20446;-75
2021/05/07 02:05:49;;;;;;;3.60;1.58;;;6.50;99.90;;;;;;5063900;28;20044;-75
2021/05/07 02:08:15;;;;;;;7.65;1.48;;;6.50;99.90;;;;;;5062502;28;20033;-76
2021/05/07 02:10:42;;;;;;;2.63;1.80;;;6.60;99.90;;;;;;5062933;28;20079;-76
2021/05/07 02:13:11;;;;;;;2.45;1.17;;;6.60;99.90;;;;;;5064119;28;20359;-75
2021/05/07 02:15:37;;;;;;;3.33;1.65;;;6.50;99.90;;;;;;5064916;28;20077;-75
2021/05/07 02:18:04;;;;;;;2.38;1.45;;;6.60;99.90;;;;;;5068038;28;20067;-73
2021/05/07 02:20:31;;;;;;;3.55;1.52;;;6.50;99.90;;;;;;5066159;28;20029;-75
2021/05/07 02:22:57;;;;;;;3.03;1.40;;;6.40;99.90;;;;;;5067521;28;20025;-75
2021/05/07 02:25:24;;;;;;;4.38;1.58;;;6.30;99.90;;;;;;5067748;28;20017;-74
2021/05/07 02:27:52;;;;;;;4.32;1.75;;;6.40;99.90;;;;;;5067186;28;20033;-74
2021/05/07 02:30:20;;;;;;;4.18;2.10;;;6.30;99.90;;;;;;5067345;28;20033;-74
2021/05/07 02:32:46;;;;;;;4.78;2.03;;;6.30;99.90;;;;;;5066226;28;20040;-74
2021/05/07 02:35:12;;;;;;;3.15;1.40;;;6.20;99.90;;;;;;5067446;28;20044;-77
2021/05/07 02:37:38;;;;;;;2.88;1.58;;;6.30;99.90;;;;;;5067635;28;20044;-75
2021/05/07 02:40:06;;;;;;;5.32;2.25;;;6.30;99.90;;;;;;5067355;28;20037;-75
2021/05/07 02:42:32;;;;;;;6.88;1.90;;;6.20;99.90;;;;;;5067056;28;20025;-75
2021/05/07 02:44:57;;;;;;;2.72;2.05;;;6.20;99.90;;;;;;5066125;28;20025;-75
2021/05/07 02:47:23;;;;;;;3.72;1.77;;;6.30;99.90;;;;;;5067391;28;20115;-75
2021/05/07 02:49:49;;;;;;;4.90;1.98;;;6.20;99.90;;;;;;5066975;28;20040;-73
2021/05/07 02:52:15;;;;;;;3.00;1.50;;;6.30;99.90;;;;;;5066996;28;20029;-75
2021/05/07 02:54:41;;;;;;;3.97;1.88;;;6.30;99.90;;;;;;5065927;28;20036;-76
2021/05/07 02:57:07;;;;;;;1.38;1.02;;;6.20;99.90;;;;;;5066865;28;20035;-74
2021/05/07 02:59:32;;;;;;;4.25;1.80;;;6.20;99.90;;;;;;5065849;28;20051;-75
2021/05/07 03:01:58;;;;;;;1.77;1.35;;;6.20;99.90;;;;;;5066765;28;20447;-74
2021/05/07 03:04:24;;;;;;;4.07;1.60;;;6.10;99.90;;;;;;5067050;28;20032;-77
2021/05/07 03:06:50;;;;;;;2.67;1.55;;;6.00;99.90;;;;;;5066865;28;20021;-77
2021/05/07 03:09:17;;;;;;;4.88;1.95;;;5.90;99.90;;;;;;5065644;28;20094;-78
2021/05/07 03:11:43;;;;;;;3.72;1.60;;;5.80;99.90;;;;;;5066864;28;20052;-78
2021/05/07 03:14:09;;;;;;;4.00;1.88;;;5.80;99.90;;;;;;5065603;28;20083;-79
2021/05/07 03:16:34;;;;;;;2.53;1.40;;;5.70;99.90;;;;;;5065789;28;20029;-80
2021/05/07 03:19:01;;;;;;;3.25;1.65;;;5.70;99.90;;;;;;5065216;28;20421;-79
2021/05/07 03:21:27;;;;;;;2.65;1.42;;;5.60;99.90;;;;;;5065391;28;20505;-79
2021/05/07 03:23:52;;;;;;;5.28;1.98;;;5.60;99.90;;;;;;5066532;28;20033;-80
2021/05/07 03:26:18;;;;;;;2.83;1.55;;;5.50;99.90;;;;;;5066242;28;20029;-79
2021/05/07 03:28:44;;;;;;;2.00;1.45;;;5.60;99.90;;;;;;5064299;28;20079;-80
2021/05/07 03:31:10;;;;;;;3.28;1.15;;;5.50;99.90;;;;;;5064804;28;20097;-80
2021/05/07 03:33:37;;;;;;;5.03;1.63;;;5.40;99.90;;;;;;5065348;28;20025;-79
2021/05/07 03:36:03;;;;;;;8.32;1.98;;;5.60;99.90;;;;;;5065419;28;20029;-78
2021/05/07 03:38:29;;;;;;;2.67;1.40;;;5.50;99.90;;;;;;5064678;28;20037;-79
2021/05/07 03:40:54;;;;;;;3.97;1.80;;;5.50;99.90;;;;;;5066350;28;20053;-79
2021/05/07 03:43:20;;;;;;;3.90;1.75;;;5.50;99.90;;;;;;5064940;28;20107;-78
2021/05/07 03:45:46;;;;;;;3.60;2.20;;;5.40;99.90;;;;;;5065797;28;20032;-77
2021/05/07 03:48:22;;;;;;;6.07;2.33;;;5.40;99.90;;;;;;5064980;28;20025;-81
2021/05/07 03:50:49;;;;;;;1.80;0.90;;;5.50;99.90;;;;;;5064616;28;20088;-78
2021/05/07 03:53:16;;;;;;;2.72;1.60;;;5.40;99.90;;;;;;5064681;28;20029;-80
2021/05/07 03:55:42;;;;;;;1.77;1.10;;;5.50;99.90;;;;;;5064900;28;20051;-78
2021/05/07 03:58:09;;;;;;;4.90;1.80;;;5.50;99.90;;;;;;5064596;28;20037;-78
2021/05/07 04:00:35;;;;;;;2.17;1.40;;;5.50;99.90;;;;;;5064822;28;20171;-77
2021/05/07 04:03:01;;;;;;;4.22;1.80;;;5.50;99.90;;;;;;5064789;28;20025;-80
2021/05/07 04:05:27;;;;;;;2.40;1.55;;;5.40;99.90;;;;;;5064546;28;20056;-79
2021/05/07 04:08:12;;;;;;;3.85;2.30;;;5.40;99.90;;;;;;5066019;28;20078;-77
2021/05/07 04:11:25;;;;;;;7.60;2.10;;;5.40;99.90;;;;;;5064354;28;20031;-79
2021/05/07 04:15:57;;;;;;;3.40;1.83;;;5.50;99.90;;;;;;5065794;28;20059;-78
2021/05/07 04:18:22;;;;;;;2.38;1.63;;;5.50;99.90;;;;;;5063872;28;20033;-79
2021/05/07 04:20:48;;;;;;;3.58;1.98;;;5.50;99.90;;;;;;5064327;28;20031;-77
2021/05/07 04:23:13;;;;;;;6.72;1.98;;;5.50;99.90;;;;;;5065618;28;20025;-79
2021/05/07 04:25:39;;;;;;;5.38;2.53;;;5.50;99.90;;;;;;5064122;28;20029;-80
2021/05/07 04:28:05;;;;;;;3.83;2.00;;;5.50;99.90;;;;;;5064379;28;20032;-80
2021/05/07 04:30:31;;;;;;;3.03;1.77;;;5.40;99.90;;;;;;5065227;28;20500;-77
2021/05/07 04:32:57;;;;;;;3.83;1.88;;;5.40;99.90;;;;;;5065078;28;20029;-78
2021/05/07 04:35:23;;;;;;;3.10;1.70;;;5.40;99.90;;;;;;5063931;28;20025;-79
2021/05/07 04:37:49;;;;;;;4.57;2.30;;;5.40;99.90;;;;;;5065177;28;20059;-78
2021/05/07 04:40:15;;;;;;;4.30;2.20;;;5.60;99.90;;;;;;5064466;28;20057;-79
2021/05/07 04:42:41;;;;;;;3.90;2.25;;;5.50;99.90;;;;;;5066635;28;20025;-80
2021/05/07 04:45:07;;;;;;;3.22;1.90;;;5.40;99.90;;;;;;5066230;28;20029;-78
2021/05/07 04:47:33;;;;;;;3.58;1.63;;;5.50;99.90;;;;;;5064809;28;20371;-76
2021/05/07 04:49:58;;;;;;;4.03;1.83;;;5.50;99.90;;;;;;5065217;28;20036;-78
2021/05/07 04:52:24;;;;;;;1.60;1.20;;;5.50;99.90;;;;;;5066413;28;20032;-76
2021/05/07 04:54:49;;;;;;;3.08;1.58;;;5.40;99.90;;;;;;5064781;28;20378;-77
2021/05/07 04:57:15;;;;;;;3.85;1.83;;;5.50;99.90;;;;;;5064624;28;20093;-75
2021/05/07 04:59:40;;;;;;;5.38;1.83;;;5.40;99.90;;;;;;5065969;28;20045;-77
2021/05/07 05:02:06;;;;;;;3.45;1.60;;;5.40;99.90;;;;;;5064573;28;20055;-78
2021/05/07 05:04:32;;;;;;;2.78;1.88;;;5.50;99.90;;;;;;5066097;28;20021;-77
2021/05/07 05:06:57;;;;;;;8.20;2.17;;;5.50;99.90;;;;;;5065787;28;20025;-76
2021/05/07 05:09:23;;;;;;;4.13;1.65;;;5.60;99.90;;;;;;5064565;28;20036;-79
2021/05/07 05:11:48;;;;;;;2.67;1.50;;;5.50;99.90;;;;;;5064708;28;20036;-77
2021/05/07 05:14:14;;;;;;;2.50;1.27;;;5.70;99.90;;;;;;5064105;28;20025;-78
2021/05/07 05:16:40;;;;;;;1.10;1.00;;;5.60;99.90;;;;;;5064840;28;20055;-78
2021/05/07 05:19:05;;;;;;;2.65;1.50;;;5.60;99.90;;;;;;5066490;28;20059;-77
2021/05/07 05:21:31;;;;;;;1.70;1.13;;;5.70;99.90;;;;;;5082699;28;20037;-77
2021/05/07 05:23:56;;;;;;;1.95;1.25;;;5.80;99.90;;;;;;5066624;28;20025;-77
2021/05/07 05:26:22;;;;;;;4.05;1.40;;;5.80;99.90;;;;;;5065597;28;20055;-81
2021/05/07 05:28:48;;;;;;;5.53;1.63;;;5.90;99.90;;;;;;5063260;28;20032;-80
2021/05/07 05:31:13;;;;;;;2.42;1.30;;;5.90;99.90;;;;;;5064029;28;20055;-81
2021/05/07 05:33:39;;;;;;;2.22;1.55;;;5.90;99.90;;;;;;5064494;28;20032;-79
2021/05/07 05:36:05;;;;;;;1.40;1.13;;;5.90;99.90;;;;;;5062701;28;20025;-80
2021/05/07 05:38:31;;;;;;;5.30;1.60;;;5.90;99.90;;;;;;5065586;28;20043;-78
2021/05/07 05:40:56;;;;;;;2.22;1.48;;;5.80;99.90;;;;;;5080657;28;20073;-83
2021/05/07 05:43:23;;;;;;;2.05;1.40;;;5.90;99.90;;;;;;5080409;28;20055;-80
2021/05/07 05:45:49;;;;;;;1.35;1.25;;;5.90;99.90;;;;;;5064094;28;20036;-82
2021/05/07 05:48:15;;;;;;;4.53;1.52;;;5.80;99.90;;;;;;5080195;28;20021;-79
2021/05/07 05:50:53;;;;;;;3.15;1.83;;;5.80;99.90;;;;;;5065560;28;20473;-81
2021/05/07 05:53:20;;;;;;;3.05;1.65;;;5.90;99.90;;;;;;5068204;28;20021;-81
2021/05/07 05:55:46;;;;;;;2.40;0.85;;;5.90;99.90;;;;;;5068101;28;20029;-82
2021/05/07 05:58:12;;;;;;;4.13;1.42;;;6.00;99.90;;;;;;5068238;28;20036;-82
2021/05/07 06:00:39;;;;;;;14.85;1.80;;;6.00;99.90;;;;;;5084558;28;20028;-82
2021/05/07 06:03:06;;;;;;;2.75;1.25;;;6.00;99.90;;;;;;5084709;28;20033;-80
2021/05/07 06:05:32;;;;;;;2.45;1.35;;;6.00;99.90;;;;;;5068027;28;20025;-84
2021/05/07 06:07:57;;;;;;;1.92;1.27;;;6.00;99.90;;;;;;5067575;28;20599;-82
2021/05/07 06:10:23;;;;;;;5.07;1.55;;;6.00;99.90;;;;;;5067339;28;20036;-82
2021/05/07 06:12:49;;;;;;;5.70;1.67;;;6.00;99.90;;;;;;5084827;28;20025;-82
2021/05/07 06:15:19;;;;;;;6.00;1.52;;;6.10;99.90;;;;;;5067913;28;20028;-82
2021/05/07 06:17:45;;;;;;;3.78;1.45;;;6.10;99.90;;;;;;5067503;28;20092;-79
2021/05/07 06:20:14;;;;;;;2.40;1.42;;;6.10;99.90;;;;;;5069464;28;20021;-82
2021/05/07 06:22:41;;;;;;;1.85;1.33;;;6.10;99.90;;;;;;5083548;28;20079;-81
2021/05/07 06:25:12;;;;;;;2.83;1.58;;;6.10;99.90;;;;;;5068299;28;20021;-83
2021/05/07 06:27:53;;;;;;;3.15;1.60;;;6.10;99.90;;;;;;5076272;28;20032;-80
2021/05/07 06:30:19;;;;;;;2.20;0.93;;;6.10;99.90;;;;;;5071671;28;20126;-76
2021/05/07 06:32:45;;;;;;;1.48;1.15;;;6.10;99.90;;;;;;5067370;28;20033;-80
2021/05/07 06:35:12;;;;;;;0.80;0.75;;;6.00;99.90;;;;;;5067829;28;20025;-77
2021/05/07 06:37:39;;;;;;;2.38;1.10;;;6.20;99.90;;;;;;5068517;28;20055;-76
2021/05/07 06:40:09;;;;;;;2.50;1.55;;;6.10;99.90;;;;;;5066896;28;20044;-76
2021/05/07 06:42:38;;;;;;;3.53;1.50;;;6.10;99.90;;;;;;5068442;28;20021;-81
2021/05/07 06:45:09;;;;;;;3.35;2.10;;;6.20;99.90;;;;;;5066746;28;20056;-80
2021/05/07 06:47:35;;;;;;;2.33;1.55;;;6.10;99.90;;;;;;5067100;28;20050;-77
2021/05/07 06:50:01;;;;;;;4.88;1.98;;;6.00;99.90;;;;;;5066250;28;20021;-78
2021/05/07 06:52:27;;;;;;;2.53;1.77;;;6.00;99.90;;;;;;5066615;28;20028;-81
2021/05/07 06:54:52;;;;;;;4.10;2.55;;;5.90;99.90;;;;;;5067659;28;20031;-73
2021/05/07 06:57:18;;;;;;;4.30;2.13;;;5.90;99.90;;;;;;5067898;28;20032;-72
2021/05/07 06:59:47;;;;;;;3.75;1.70;;;6.00;99.90;;;;;;5067172;28;20088;-80
2021/05/07 07:02:16;;;;;;;4.35;2.25;;;6.00;99.90;;;;;;5068149;28;20079;-78
2021/05/07 07:04:42;;;;;;;2.22;1.38;;;6.10;99.90;;;;;;5082901;28;20033;-79
2021/05/07 07:07:08;;;;;;;2.28;1.30;;;6.20;99.90;;;;;;5084878;28;20115;-75
2021/05/07 07:09:34;;;;;;;3.33;1.02;;;6.20;99.90;;;;;;5086598;28;20037;-77
2021/05/07 07:11:59;;;;;;;1.48;1.20;;;6.20;99.90;;;;;;5087242;28;20024;-79
2021/05/07 07:14:25;;;;;;;2.88;1.48;;;6.30;99.90;;;;;;5086871;28;20052;-80
2021/05/07 07:16:51;;;;;;;1.98;1.17;;;6.30;99.90;;;;;;5085758;28;20092;-76
2021/05/07 07:19:16;;;;;;;1.55;1.08;;;6.40;99.90;;;;;;5086670;28;20032;-77
2021/05/07 07:21:42;;;;;;;1.27;0.90;;;6.30;99.90;;;;;;5085427;28;20488;-73
2021/05/07 07:24:08;;;;;;;2.95;1.33;;;6.30;99.90;;;;;;5086651;28;20035;-79
2021/05/07 07:26:34;;;;;;;1.73;0.90;;;6.30;99.90;;;;;;5085597;28;20044;-72
2021/05/07 07:28:59;;;;;;;1.15;0.70;;;6.50;99.90;;;;;;5085897;28;20021;-75
2021/05/07 07:31:25;;;;;;;2.65;1.08;;;6.70;99.90;;;;;;5087328;28;20033;-76
2021/05/07 07:33:51;;;;;;;2.13;1.00;;;6.90;99.90;;;;;;5085638;28;20032;-77
2021/05/07 07:36:16;;;;;;;1.73;1.23;;;7.20;99.90;;;;;;5085164;28;20021;-76
2021/05/07 07:38:42;;;;;;;2.30;1.15;;;7.30;99.90;;;;;;5086263;28;20032;-78
2021/05/07 07:41:07;;;;;;;1.52;0.90;;;7.40;99.90;;;;;;5085025;28;20067;-77
2021/05/07 07:43:33;;;;;;;0.73;0.50;;;7.40;99.90;;;;;;5085238;28;20028;-78
2021/05/07 07:45:59;;;;;;;1.63;1.00;;;7.50;99.90;;;;;;5085232;28;20032;-78
2021/05/07 07:48:25;;;;;;;2.90;1.60;;;7.60;99.90;;;;;;5086253;28;20029;-77
2021/05/07 07:50:50;;;;;;;1.42;0.85;;;7.70;99.90;;;;;;5084962;28;20029;-82
2021/05/07 07:53:16;;;;;;;2.60;1.33;;;7.90;99.90;;;;;;5086451;28;20100;-76
2021/05/07 07:55:42;;;;;;;2.97;0.80;;;8.00;99.90;;;;;;5086402;28;20021;-80
2021/05/07 07:58:08;;;;;;;1.30;0.80;;;8.20;99.90;;;;;;5086991;28;20497;-74
2021/05/07 08:00:34;;;;;;;1.38;0.88;;;8.30;99.90;;;;;;5085119;28;20040;-74
2021/05/07 08:03:00;;;;;;;1.55;1.00;;;8.40;99.90;;;;;;5085969;28;21020;-76
2021/05/07 08:05:26;;;;;;;0.90;0.70;;;8.40;99.90;;;;;;5073576;28;20424;-75
2021/05/07 08:07:55;;;;;;;1.90;0.80;;;8.70;99.90;;;;;;5063864;28;20036;-76
2021/05/07 08:10:21;;;;;;;1.52;1.00;;;8.90;99.90;;;;;;5063158;28;20033;-74
2021/05/07 08:12:46;;;;;;;1.60;0.95;;;8.90;99.90;;;;;;5065026;28;20037;-78
2021/05/07 08:15:12;;;;;;;1.58;0.80;;;8.80;99.90;;;;;;5066648;28;20033;-75
2021/05/07 08:17:38;;;;;;;1.25;0.80;;;9.00;99.90;;;;;;5066219;28;20044;-79
2021/05/07 08:20:05;;;;;;;1.35;0.85;;;9.20;99.90;;;;;;5065342;28;20035;-76
2021/05/07 08:22:31;;;;;;;2.33;0.80;;;9.30;99.90;;;;;;5066049;28;20108;-77
2021/05/07 08:24:57;;;;;;;0.70;0.40;;;9.30;99.90;;;;;;5064565;28;20035;-74
2021/05/07 08:27:23;;;;;;;2.15;1.00;;;9.20;99.90;;;;;;5066106;28;20029;-72
2021/05/07 08:29:49;;;;;;;2.22;0.77;;;8.90;99.90;;;;;;5065227;28;20017;-74
2021/05/07 08:32:15;;;;;;;1.42;1.00;;;8.60;99.90;;;;;;5065495;28;20043;-73
2021/05/07 08:34:43;;;;;;;1.45;0.90;;;8.30;99.90;;;;;;5061813;28;20048;-77
2021/05/07 08:37:10;;;;;;;2.00;0.98;;;8.10;99.90;;;;;;5062908;28;20060;-79
2021/05/07 08:39:36;;;;;;;0.93;0.80;;;8.00;99.90;;;;;;5063002;28;20127;-75
2021/05/07 08:42:05;;;;;;;1.80;1.15;;;8.00;99.90;;;;;;5071132;28;20142;-75
2021/05/07 08:44:31;;;;;;;2.25;1.13;;;7.90;99.90;;;;;;5069125;28;20028;-75
2021/05/07 08:46:56;;;;;;;1.02;0.80;;;7.90;99.90;;;;;;5079277;28;20029;-75
2021/05/07 08:49:24;;;;;;;1.15;0.98;;;7.90;99.90;;;;;;5084511;28;20032;-73
2021/05/07 08:51:50;;;;;;;2.25;0.98;;;8.00;99.90;;;;;;5084057;28;20031;-75
2021/05/07 08:54:15;;;;;;;1.23;0.90;;;8.30;99.90;;;;;;5084215;28;20028;-74
2021/05/07 08:56:41;;;;;;;1.00;0.70;;;8.80;99.90;;;;;;5083610;28;20050;-74
2021/05/07 08:59:07;;;;;;;2.58;0.82;;;9.20;99.90;;;;;;5083066;28;20103;-74
2021/05/07 09:01:41;;;;;;;0.60;0.60;;;9.60;99.90;;;;;;5072875;28;20044;-74
2021/05/07 09:04:16;;;;;;;2.17;0.82;;;9.90;99.90;;;;;;5078083;28;20039;-74
2021/05/07 09:06:49;;;;;;;1.13;0.70;;;10.10;99.90;;;;;;5083606;28;20039;-75
2021/05/07 09:09:16;;;;;;;2.90;1.00;;;10.10;99.90;;;;;;5082743;28;20047;-75
2021/05/07 09:11:43;;;;;;;0.57;0.40;;;10.00;99.90;;;;;;5083547;28;20050;-74
2021/05/07 09:14:11;;;;;;;1.25;0.75;;;9.80;99.90;;;;;;5085005;28;20050;-76
2021/05/07 09:16:47;;;;;;;1.77;0.63;;;9.60;99.90;;;;;;5085182;28;20088;-76
2021/05/07 09:19:24;;;;;;;1.67;0.40;;;9.60;99.90;;;;;;5084633;28;20028;-75
2021/05/07 09:21:51;;;;;;;2.83;0.45;;;9.60;99.90;;;;;;5084718;28;20029;-77
2021/05/07 09:24:17;;;;;;;3.17;0.80;;;9.60;99.90;;;;;;5084449;28;20025;-74
2021/05/07 09:26:48;;;;;;;1.95;0.60;;;9.60;99.90;;;;;;5079779;28;20358;-77
2021/05/07 09:29:27;;;;;;;0.55;0.43;;;9.40;99.90;;;;;;5077550;28;20504;-79
2021/05/07 09:31:54;;;;;;;1.45;0.60;;;9.20;99.90;;;;;;5074185;28;20028;-77
2021/05/07 09:34:22;;;;;;;1.45;0.47;;;8.90;99.90;;;;;;5084592;28;20486;-77
2021/05/07 09:36:50;;;;;;;1.25;0.60;;;8.80;99.90;;;;;;5083416;28;20031;-73
2021/05/07 09:39:22;;;;;;;0.45;0.25;;;8.70;99.90;;;;;;5084547;28;20036;-77
2021/05/07 09:41:50;;;;;;;0.95;0.80;;;8.70;99.90;;;;;;5084272;28;20489;-78
2021/05/07 09:44:22;;;;;;;1.00;0.45;;;8.50;99.90;;;;;;5083304;28;20033;-76
2021/05/07 09:46:50;;;;;;;1.45;0.60;;;8.30;99.90;;;;;;5083516;28;20036;-75
2021/05/07 09:49:28;;;;;;;0.75;0.35;;;8.20;99.90;;;;;;5084539;28;20036;-78
2021/05/07 09:51:55;;;;;;;1.00;0.50;;;8.10;99.90;;;;;;5084727;28;20021;-76
2021/05/07 09:54:21;;;;;;;7.32;0.93;;;8.30;99.90;;;;;;5082828;28;20027;-78
2021/05/07 09:56:47;;;;;;;0.93;0.70;;;8.70;99.90;;;;;;5082929;28;20032;-79
2021/05/07 09:59:14;;;;;;;0.20;0.20;;;9.20;99.90;;;;;;5084287;28;20040;-74
2021/05/07 10:01:44;;;;;;;0.80;0.52;;;9.80;99.90;;;;;;5083994;28;20024;-77
2021/05/07 10:04:11;;;;;;;0.50;0.40;;;10.40;99.90;;;;;;5084105;28;20112;-76
2021/05/07 10:06:37;;;;;;;0.50;0.30;;;10.50;99.90;;;;;;5084539;28;20021;-75
2021/05/07 10:09:04;;;;;;;0.22;0.22;;;10.20;99.90;;;;;;5082368;28;20039;-74
2021/05/07 10:11:42;;;;;;;1.10;0.38;;;9.80;99.90;;;;;;5084112;28;20039;-74
2021/05/07 10:14:11;;;;;;;0.45;0.30;;;9.20;99.90;;;;;;5084111;28;20088;-78
2021/05/07 10:16:39;;;;;;;0.70;0.45;;;8.90;99.90;;;;;;5083750;28;20043;-78
2021/05/07 10:19:06;;;;;;;7.28;0.60;;;8.70;99.90;;;;;;5082809;28;20101;-74
2021/05/07 10:21:37;;;;;;;0.55;0.25;;;8.60;99.90;;;;;;5078347;28;20029;-77
2021/05/07 10:24:04;;;;;;;0.43;0.25;;;8.60;99.90;;;;;;5076916;28;20020;-73
2021/05/07 10:26:41;;;;;;;1.27;0.60;;;8.50;99.90;;;;;;5063872;28;20051;-77
2021/05/07 10:29:19;;;;;;;2.63;0.45;;;8.50;99.90;;;;;;5063689;28;20028;-77
2021/05/07 10:31:48;;;;;;;1.55;0.57;;;8.60;99.90;;;;;;5064104;28;20104;-75
2021/05/07 10:34:15;;;;;;;0.60;0.50;;;8.70;99.90;;;;;;5063942;28;20025;-76
2021/05/07 10:36:48;;;;;;;1.13;0.68;;;8.80;99.90;;;;;;5063489;28;20485;-78
2021/05/07 10:39:24;;;;;;;0.30;0.30;;;8.90;99.90;;;;;;5066868;28;20051;-76
2021/05/07 10:41:51;;;;;;;0.75;0.40;;;9.10;99.90;;;;;;5067408;28;20115;-75
2021/05/07 10:44:18;;;;;;;2.58;0.63;;;9.60;99.90;;;;;;5065774;28;20025;-77
2021/05/07 10:46:56;;;;;;;0.47;0.40;;;10.20;99.90;;;;;;5066050;28;20116;-77
2021/05/07 10:49:31;;;;;;;0.85;0.57;;;10.80;99.90;;;;;;5065732;28;20029;-73
2021/05/07 10:51:57;;;;;;;0.63;0.43;;;10.90;99.90;;;;;;5067235;28;20025;-77
2021/05/07 10:54:34;;;;;;;1.67;0.47;;;10.90;99.90;;;;;;5067520;28;20059;-76
2021/05/07 10:57:00;;;;;;;3.67;0.60;;;10.80;99.90;;;;;;5065602;28;20025;-74
2021/05/07 10:59:25;;;;;;;0.90;0.20;;;11.00;99.90;;;;;;5065975;28;20442;-77
2021/05/07 11:02:02;;;;;;;0.20;0.20;;;11.20;99.90;;;;;;5075824;28;20044;-77
2021/05/07 11:04:41;;;;;;;1.70;0.60;;;11.20;99.90;;;;;;5084784;28;20037;-75
2021/05/07 11:07:07;;;;;;;0.73;0.47;;;11.10;99.90;;;;;;5085674;28;20051;-77
2021/05/07 11:09:33;;;;;;;1.83;0.68;;;11.10;99.90;;;;;;5083065;28;20024;-74
2021/05/07 11:12:03;;;;;;;1.17;0.50;;;11.00;99.90;;;;;;5063190;28;20025;-75
2021/05/07 11:14:34;;;;;;;0.63;0.50;;;11.20;99.90;;;;;;5065001;28;20040;-76
2021/05/07 11:17:00;;;;;;;0.43;0.43;;;11.20;99.90;;;;;;5065174;28;20072;-74
2021/05/07 11:19:30;;;;;;;10.63;0.60;;;11.20;99.90;;;;;;5065336;28;20041;-77
2021/05/07 11:22:05;;;;;;;1.40;0.63;;;11.10;99.90;;;;;;5066511;28;20037;-75
2021/05/07 11:24:32;;;;;;;0.47;0.40;;;10.90;99.90;;;;;;5066477;28;20021;-76
2021/05/07 11:26:59;;;;;;;1.17;0.40;;;11.00;99.90;;;;;;5066423;28;20059;-77
2021/05/07 11:29:29;;;;;;;4.05;0.85;;;11.10;99.90;;;;;;5064799;28;20121;-76
2021/05/07 11:31:55;;;;;;;0.45;0.40;;;11.50;99.90;;;;;;5063380;28;20482;-75
2021/05/07 11:34:25;;;;;;;2.05;0.70;;;11.90;99.90;;;;;;5064223;28;20032;-76
2021/05/07 11:36:58;;;;;;;1.30;0.73;;;12.10;99.90;;;;;;5065892;28;20029;-77
2021/05/07 11:39:24;;;;;;;0.75;0.40;;;12.30;99.90;;;;;;5064445;28;20033;-77
2021/05/07 11:41:49;;;;;;;2.60;0.88;;;12.20;99.90;;;;;;5065957;28;20053;-71
2021/05/07 11:44:15;;;;;;;1.38;0.70;;;12.00;99.90;;;;;;5065300;28;20070;-73
2021/05/07 11:46:41;;;;;;;2.58;0.40;;;11.80;99.90;;;;;;5063945;28;20595;-76
2021/05/07 11:49:06;;;;;;;1.13;0.45;;;11.50;99.90;;;;;;5064464;28;20033;-78
2021/05/07 11:51:34;;;;;;;0.85;0.63;;;11.40;99.90;;;;;;5066316;28;20067;-79
2021/05/07 11:54:00;;;;;;;0.77;0.30;;;11.40;99.90;;;;;;5065832;28;20035;-77
2021/05/07 11:56:26;;;;;;;1.58;0.47;;;11.40;99.90;;;;;;5066254;28;20056;-75
2021/05/07 11:58:54;;;;;;;0.57;0.55;;;11.50;99.90;;;;;;5065625;28;20036;-76
2021/05/07 12:01:21;;;;;;;1.80;0.70;;;11.60;99.90;;;;;;5065140;28;20040;-72
2021/05/07 12:03:48;;;;;;;0.70;0.50;;;11.70;99.90;;;;;;5064367;28;20083;-78
2021/05/07 12:06:22;;;;;;;2.08;0.80;;;11.70;99.90;;;;;;5065255;28;20027;-76
2021/05/07 12:08:49;;;;;;;0.77;0.52;;;11.70;99.90;;;;;;5065509;28;20119;-77
2021/05/07 12:11:16;;;;;;;0.55;0.38;;;11.70;99.90;;;;;;5064532;28;20029;-77
2021/05/07 12:13:43;;;;;;;1.63;0.80;;;11.50;99.90;;;;;;5065519;28;20029;-77
2021/05/07 12:16:10;;;;;;;1.00;0.40;;;11.40;99.90;;;;;;5065613;28;20032;-79
2021/05/07 12:18:54;;;;;;;1.05;0.47;;;11.40;99.90;;;;;;5065340;28;20044;-77
2021/05/07 12:21:20;;;;;;;1.08;0.60;;;11.40;99.90;;;;;;5065049;28;20036;-73
2021/05/07 12:23:50;;;;;;;0.55;0.40;;;11.50;99.90;;;;;;5064525;28;20029;-75
2021/05/07 12:26:18;;;;;;;0.90;0.50;;;11.60;99.90;;;;;;5065530;28;20029;-74
2021/05/07 12:28:58;;;;;;;0.90;0.25;;;11.90;99.90;;;;;;5063755;28;20029;-75
2021/05/07 12:31:32;;;;;;;1.77;0.43;;;12.10;99.90;;;;;;5063823;28;20036;-76
2021/05/07 12:33:58;;;;;;;1.42;0.35;;;12.20;99.90;;;;;;5065126;28;20021;-76
2021/05/07 12:36:24;;;;;;;0.25;0.22;;;12.30;99.90;;;;;;5063589;28;20105;-75
2021/05/07 12:38:53;;;;;;;2.15;0.43;;;12.80;99.90;;;;;;5070532;28;20103;-80
2021/05/07 12:41:20;;;;;;;1.45;0.43;;;13.30;99.90;;;;;;5086225;28;20074;-80
2021/05/07 12:43:51;;;;;;;1.00;0.45;;;13.40;99.90;;;;;;5083298;28;20032;-77
2021/05/07 12:46:18;;;;;;;0.30;0.20;;;13.20;99.90;;;;;;5084860;28;20025;-77
2021/05/07 12:48:48;;;;;;;4.88;0.57;;;13.00;99.90;;;;;;5083399;28;20050;-75
2021/05/07 12:51:15;;;;;;;0.52;0.50;;;12.80;99.90;;;;;;5083911;28;20063;-74
2021/05/07 12:53:44;;;;;;;0.20;0.20;;;12.40;99.90;;;;;;5083489;28;20025;-74
2021/05/07 12:56:15;;;;;;;0.40;0.40;;;12.30;99.90;;;;;;5083525;28;20032;-78
2021/05/07 12:58:41;;;;;;;4.72;0.40;;;12.10;99.90;;;;;;5084598;28;20036;-74